Valley Grove, WV (26060)

10:14 AM EDT on September 01, 2015 (GMT -0400)
West Alexander, PA | | Change Station
CLOSE
Current Station
Personal Weather Station
Location: West Alexander, PA
Elevation: 1302 ft
Nearby Weather Stations

Elev 1302 ft 40.10 °N, 80.51 °W | Updated 0 second ago

Clear
Clear
79.7 °F
Feels Like 81 °F
N
1.1
Wind Variable Wind from WSW

Today
High -- | Low -- °F
--% Chance of Precip.
Yesterday
High -- | Low -- °F
Precip. -- in
6:49 AM 7:54 PM
Waning Gibbous, 88% visible
Pressure 30.14 in
Visibility 7.0 miles
Clouds Clear
Heat Index 81 °F
Dew Point 64 °F
Humidity 59%
Rainfall 0.00 in
Snow Depth Not available.
UV 4 out of 12
Pollen 10.50 out of 12
Air Quality Not available.
Flu Activity Not available.
METAR KHLG 011353Z 00000KT 7SM CLR 23/20 A3016 RMK AO2 SLP207 T02330200
Pressure 30.14 in
Visibility 7.0 miles
Clouds Clear
Heat Index 81 °F
Dew Point 64 °F
Humidity 59%
Rainfall 0.00 in
Snow Depth Not available.
UV 4 out of 12
Pollen 10.50 out of 12
Air Quality Not available.
Flu Activity Not available.
METAR KHLG 011353Z 00000KT 7SM CLR 23/20 A3016 RMK AO2 SLP207 T02330200

10-Day Weather Forecast

×

Almanac

Astronomy

Sep. 01, 2015 Rise Set
Actual Time
Civil Twilight
Nautical Twilight
Astronomical Twilight
Moon
Length of Visible Light
Length of Day
Tomorrow will be .
, % of the Moon is Illuminated

Today's Extremes

State Highs State Lows

Community

WunderPhotos

Upload Photos

1,851,512 photos uploaded!

WunderBlogs® & News

Nearby

Air Quality

  Air Quality AQ Index Pollutant
Not available.

Snow Depth

Station Depth Elevation

Earthquake Activity

City Distance Mag. Time & Date
Minimum magnitude displayed is 2.5.

Coastal Water Temperatures

Place Temperature

Stations

Nearby Weather Stations

Station Location Temp. Windchill Dew Point Humidity Wind Precip. Elev Updated Type